createdAt,value
2017-01-30T00:01:07.950Z,0
2017-01-30T00:02:17.869Z,0
2017-01-30T00:03:28.166Z,0
2017-01-30T00:04:38.334Z,0
2017-01-30T00:05:49.037Z,0
2017-01-30T00:06:59.364Z,0
2017-01-30T00:08:09.671Z,0
2017-01-30T00:09:20.380Z,0
2017-01-30T00:10:31.326Z,0
2017-01-30T00:11:41.230Z,0
2017-01-30T00:12:51.540Z,0
2017-01-30T00:14:01.040Z,0
2017-01-30T00:15:11.329Z,0
2017-01-30T00:16:21.136Z,0
2017-01-30T00:17:30.643Z,0
2017-01-30T00:18:40.954Z,0
2017-01-30T00:19:51.280Z,0
2017-01-30T00:21:01.996Z,0
2017-01-30T00:22:12.987Z,0
2017-01-30T00:23:22.906Z,0
2017-01-30T00:24:32.401Z,0
2017-01-30T00:25:43.084Z,0
2017-01-30T00:26:53.421Z,0
2017-01-30T00:28:03.590Z,0
2017-01-30T00:29:14.282Z,0
2017-01-30T00:30:24.577Z,0
2017-01-30T00:31:35.294Z,0
2017-01-30T00:32:45.200Z,0
2017-01-30T00:33:55.744Z,0
2017-01-30T00:35:05.253Z,0
2017-01-30T00:36:15.948Z,0
2017-01-30T00:37:25.849Z,0
2017-01-30T00:38:35.746Z,0
2017-01-30T00:39:45.889Z,0
2017-01-30T00:40:56.180Z,0
2017-01-30T00:42:06.082Z,0
2017-01-30T00:43:15.587Z,0
2017-01-30T00:44:25.497Z,0
2017-01-30T00:45:35.272Z,0
2017-01-30T00:46:45.173Z,0
2017-01-30T00:47:55.457Z,0
2017-01-30T00:49:05.581Z,0
2017-01-30T00:50:15.885Z,0
2017-01-30T00:51:26.480Z,0
2017-01-30T00:52:36.384Z,0
2017-01-30T00:53:47.087Z,0
2017-01-30T00:54:57.379Z,0
2017-01-30T00:56:07.678Z,0
2017-01-30T00:57:18.658Z,0
2017-01-30T00:58:28.947Z,0
2017-01-30T00:59:39.241Z,0
2017-01-30T01:00:49.919Z,0
2017-01-30T01:02:00.644Z,0
2017-01-30T01:03:10.828Z,0
2017-01-30T01:04:20.723Z,0
2017-01-30T01:05:30.720Z,0
2017-01-30T01:06:41.010Z,0
2017-01-30T01:07:50.908Z,0
2017-01-30T01:09:01.888Z,0
2017-01-30T01:10:11.798Z,0
2017-01-30T01:11:21.662Z,0
2017-01-30T01:12:31.528Z,0
2017-01-30T01:13:41.392Z,0
2017-01-30T01:14:51.554Z,0
2017-01-30T01:16:01.415Z,0
2017-01-30T01:17:11.708Z,0
2017-01-30T01:18:21.596Z,0
2017-01-30T01:19:31.492Z,0
2017-01-30T01:20:41.686Z,0
2017-01-30T01:21:51.193Z,0
2017-01-30T01:23:00.704Z,0
2017-01-30T01:24:11.399Z,0
2017-01-30T01:25:20.902Z,0
2017-01-30T01:26:31.443Z,0
2017-01-30T01:27:41.756Z,0
2017-01-30T01:28:52.437Z,0
2017-01-30T01:30:02.730Z,0
2017-01-30T01:31:13.413Z,0
2017-01-30T01:32:22.779Z,0
2017-01-30T01:33:33.469Z,0
2017-01-30T01:34:43.363Z,0
2017-01-30T01:35:52.874Z,0
2017-01-30T01:37:03.185Z,0
2017-01-30T01:38:13.744Z,0
2017-01-30T01:39:24.441Z,0
2017-01-30T01:40:34.372Z,0
2017-01-30T01:41:44.266Z,0
2017-01-30T01:42:54.944Z,0
2017-01-30T01:44:04.716Z,0
2017-01-30T01:45:15.017Z,0
2017-01-30T01:46:24.906Z,0
2017-01-30T01:47:34.793Z,0
2017-01-30T01:48:45.473Z,0
2017-01-30T01:49:55.622Z,0
2017-01-30T01:51:05.525Z,0
2017-01-30T01:52:15.814Z,0
2017-01-30T01:53:26.103Z,0
2017-01-30T01:54:36.781Z,0
2017-01-30T01:55:47.007Z,0
2017-01-30T01:56:56.949Z,0
2017-01-30T01:58:06.861Z,0
2017-01-30T01:59:17.559Z,0
2017-01-30T02:00:27.850Z,0
2017-01-30T02:01:38.842Z,0
2017-01-30T02:02:48.743Z,0
2017-01-30T02:03:58.253Z,0
2017-01-30T02:05:08.995Z,0
2017-01-30T02:06:19.302Z,0
2017-01-30T02:07:29.444Z,0
2017-01-30T02:08:39.360Z,0
2017-01-30T02:09:49.666Z,0
2017-01-30T02:10:59.958Z,0
2017-01-30T02:12:09.466Z,0
2017-01-30T02:13:18.837Z,0
2017-01-30T02:14:28.366Z,0
2017-01-30T02:15:38.270Z,0
2017-01-30T02:16:47.792Z,0
2017-01-30T02:17:57.304Z,0
2017-01-30T02:19:07.114Z,0
2017-01-30T02:20:17.015Z,0
2017-01-30T02:21:26.903Z,0
2017-01-30T02:22:36.410Z,0
2017-01-30T02:23:47.095Z,0
2017-01-30T02:24:57.657Z,0
2017-01-30T02:26:07.560Z,0
2017-01-30T02:27:17.094Z,0
2017-01-30T02:28:26.992Z,0
2017-01-30T02:29:36.128Z,0
2017-01-30T02:30:46.684Z,0
2017-01-30T02:31:56.984Z,0
2017-01-30T02:33:06.900Z,0
2017-01-30T02:34:17.187Z,0
2017-01-30T02:35:27.096Z,0
2017-01-30T02:36:37.636Z,0
2017-01-30T02:37:47.942Z,0
2017-01-30T02:38:57.840Z,0
2017-01-30T02:40:08.149Z,0
2017-01-30T02:41:18.436Z,0
2017-01-30T02:42:29.024Z,0
2017-01-30T02:43:39.704Z,0
2017-01-30T02:44:49.218Z,0
2017-01-30T02:45:58.723Z,0
2017-01-30T02:47:08.613Z,0
2017-01-30T02:48:19.553Z,0
2017-01-30T02:49:29.849Z,0
2017-01-30T02:50:39.357Z,0
2017-01-30T02:51:49.258Z,0
2017-01-30T02:52:59.555Z,0
2017-01-30T02:54:10.106Z,0
2017-01-30T02:55:20.026Z,0
2017-01-30T02:56:30.341Z,0
2017-01-30T02:57:39.840Z,0
2017-01-30T02:58:49.351Z,0
2017-01-30T02:59:59.891Z,0
2017-01-30T03:01:09.791Z,0
2017-01-30T03:02:20.470Z,0
2017-01-30T03:03:30.769Z,0
2017-01-30T03:04:41.065Z,0
2017-01-30T03:05:51.994Z,0
2017-01-30T03:07:01.999Z,0
2017-01-30T03:08:12.297Z,0
2017-01-30T03:09:22.596Z,0
2017-01-30T03:10:33.274Z,0
2017-01-30T03:11:43.470Z,0
2017-01-30T03:12:53.388Z,0
2017-01-30T03:14:03.679Z,0
2017-01-30T03:15:13.564Z,0
2017-01-30T03:16:23.468Z,0
2017-01-30T03:17:34.015Z,0
2017-01-30T03:18:43.523Z,0
2017-01-30T03:19:54.249Z,0
2017-01-30T03:21:04.172Z,0
2017-01-30T03:22:14.458Z,0
2017-01-30T03:23:25.060Z,0
2017-01-30T03:24:35.381Z,0
2017-01-30T03:25:44.885Z,0
2017-01-30T03:26:55.172Z,0
2017-01-30T03:28:05.067Z,0
2017-01-30T03:29:15.291Z,0
2017-01-30T03:30:25.190Z,0
2017-01-30T03:31:35.088Z,0
2017-01-30T03:32:45.391Z,0
2017-01-30T03:33:55.675Z,0
2017-01-30T03:35:05.820Z,0
2017-01-30T03:36:16.122Z,0
2017-01-30T03:37:26.425Z,0
2017-01-30T03:38:36.317Z,0
2017-01-30T03:39:46.618Z,0
2017-01-30T03:40:56.368Z,0
2017-01-30T03:42:06.657Z,0
2017-01-30T03:43:16.947Z,0
2017-01-30T03:44:27.264Z,0
2017-01-30T03:45:37.961Z,0
2017-01-30T03:46:48.165Z,0
2017-01-30T03:47:58.553Z,0
2017-01-30T03:49:09.241Z,0
2017-01-30T03:50:19.927Z,0
2017-01-30T03:51:29.817Z,0
2017-01-30T03:52:40.803Z,0
2017-01-30T03:53:51.096Z,0
2017-01-30T03:55:00.601Z,0
2017-01-30T03:56:11.300Z,0
2017-01-30T03:57:21.200Z,0
2017-01-30T03:58:31.782Z,0
2017-01-30T03:59:40.514Z,0
2017-01-30T04:00:51.205Z,0
2017-01-30T04:02:01.510Z,0
2017-01-30T04:03:11.801Z,0
2017-01-30T04:04:21.164Z,0
2017-01-30T04:05:31.515Z,0
2017-01-30T04:06:42.193Z,0
2017-01-30T04:07:51.688Z,0
2017-01-30T04:09:01.583Z,0
2017-01-30T04:10:11.729Z,0
2017-01-30T04:11:21.619Z,0
2017-01-30T04:12:31.907Z,0
2017-01-30T04:13:41.826Z,0
2017-01-30T04:14:52.114Z,0
2017-01-30T04:16:02.273Z,0
2017-01-30T04:17:12.576Z,0
2017-01-30T04:18:22.888Z,0
2017-01-30T04:19:32.790Z,0
2017-01-30T04:20:43.105Z,0
2017-01-30T04:21:53.649Z,0
2017-01-30T04:23:03.162Z,0
2017-01-30T04:24:13.043Z,0
2017-01-30T04:25:22.938Z,0
2017-01-30T04:26:33.227Z,0
2017-01-30T04:27:43.028Z,0
2017-01-30T04:28:52.540Z,0
2017-01-30T04:30:02.047Z,0
2017-01-30T04:31:12.345Z,0
2017-01-30T04:32:22.264Z,0
2017-01-30T04:33:33.210Z,0
2017-01-30T04:34:43.509Z,0
2017-01-30T04:35:53.806Z,0
2017-01-30T04:37:04.500Z,0
2017-01-30T04:38:14.395Z,0
2017-01-30T04:39:24.588Z,0
2017-01-30T04:40:34.493Z,0
2017-01-30T04:41:45.170Z,0
2017-01-30T04:42:55.467Z,0
2017-01-30T04:44:05.358Z,0
2017-01-30T04:45:15.498Z,0
2017-01-30T04:46:25.390Z,0
2017-01-30T04:47:35.290Z,0
2017-01-30T04:48:45.963Z,0
2017-01-30T04:49:56.251Z,0
2017-01-30T04:51:06.795Z,0
2017-01-30T04:52:17.080Z,0
2017-01-30T04:53:26.984Z,0
2017-01-30T04:54:37.277Z,0
2017-01-30T04:55:47.166Z,0
2017-01-30T04:56:57.316Z,0
2017-01-30T04:58:07.232Z,0
2017-01-30T04:59:17.528Z,0
2017-01-30T05:00:26.633Z,0
2017-01-30T05:01:36.533Z,0
2017-01-30T05:02:46.281Z,0
2017-01-30T05:03:56.173Z,0
2017-01-30T05:05:06.500Z,0
2017-01-30T05:06:16.796Z,0
2017-01-30T05:07:26.294Z,0
2017-01-30T05:08:36.051Z,0
2017-01-30T05:09:46.741Z,0
2017-01-30T05:10:57.423Z,0
2017-01-30T05:12:07.720Z,0
2017-01-30T05:13:17.215Z,0
2017-01-30T05:14:27.374Z,0
2017-01-30T05:15:37.280Z,0
2017-01-30T05:16:47.181Z,0
2017-01-30T05:17:57.085Z,0
2017-01-30T05:19:07.380Z,0
2017-01-30T05:20:17.146Z,0
2017-01-30T05:21:27.039Z,0
2017-01-30T05:22:36.928Z,0
2017-01-30T05:23:46.048Z,0
2017-01-30T05:24:56.727Z,0
2017-01-30T05:26:06.939Z,0
2017-01-30T05:27:17.232Z,0
2017-01-30T05:28:27.516Z,0
2017-01-30T05:29:37.405Z,0
2017-01-30T05:30:47.697Z,0
2017-01-30T05:31:57.511Z,0
2017-01-30T05:33:08.193Z,0
2017-01-30T05:34:18.475Z,0
2017-01-30T05:35:27.593Z,0
2017-01-30T05:36:37.907Z,0
2017-01-30T05:37:48.909Z,0
2017-01-30T05:38:58.811Z,0
2017-01-30T05:40:07.919Z,0
2017-01-30T05:41:18.615Z,0
2017-01-30T05:42:28.913Z,0
2017-01-30T05:43:40.149Z,0
2017-01-30T05:44:50.825Z,0
2017-01-30T05:46:00.719Z,0
2017-01-30T05:47:10.219Z,0
2017-01-30T05:48:20.116Z,0
2017-01-30T05:49:31.065Z,0
2017-01-30T05:50:41.746Z,0
2017-01-30T05:51:52.475Z,0
2017-01-30T05:53:02.759Z,0
2017-01-30T05:54:12.264Z,0
2017-01-30T05:55:22.424Z,0
2017-01-30T05:56:32.320Z,0
2017-01-30T05:57:42.615Z,0
2017-01-30T05:58:53.398Z,0
2017-01-30T06:00:03.687Z,0
2017-01-30T06:01:13.056Z,0
2017-01-30T06:02:23.338Z,0
2017-01-30T06:03:33.241Z,0
2017-01-30T06:04:43.137Z,0
2017-01-30T06:05:53.053Z,0
2017-01-30T06:07:03.213Z,0
2017-01-30T06:08:12.731Z,0
2017-01-30T06:09:21.852Z,0
2017-01-30T06:10:32.545Z,0
2017-01-30T06:11:42.490Z,0
2017-01-30T06:12:53.026Z,0
2017-01-30T06:14:02.918Z,0
2017-01-30T06:15:12.414Z,0
2017-01-30T06:16:22.318Z,0
2017-01-30T06:17:32.611Z,0
2017-01-30T06:18:43.206Z,0
2017-01-30T06:19:53.492Z,0
2017-01-30T06:21:03.385Z,0
2017-01-30T06:22:12.898Z,0
2017-01-30T06:23:22.786Z,0
2017-01-30T06:24:33.785Z,0
2017-01-30T06:25:44.098Z,4
2017-01-30T06:26:53.600Z,0
2017-01-30T06:28:03.892Z,0
2017-01-30T06:29:14.566Z,4
2017-01-30T06:30:23.939Z,4
2017-01-30T06:31:34.240Z,4
2017-01-30T06:32:43.751Z,4
2017-01-30T06:33:54.052Z,4
2017-01-30T06:35:04.339Z,4
2017-01-30T06:36:14.546Z,4
2017-01-30T06:37:25.240Z,4
2017-01-30T06:38:35.545Z,4
2017-01-30T06:39:45.437Z,8
2017-01-30T06:40:55.347Z,8
2017-01-30T06:42:05.943Z,8
2017-01-30T06:43:15.444Z,12
2017-01-30T06:44:25.745Z,16
2017-01-30T06:45:36.049Z,20
2017-01-30T06:46:46.341Z,20
2017-01-30T06:47:57.283Z,24
2017-01-30T06:49:07.570Z,28
2017-01-30T06:50:17.460Z,24
2017-01-30T06:51:27.362Z,24
2017-01-30T06:52:37.455Z,28
2017-01-30T06:53:47.657Z,32
2017-01-30T06:54:57.555Z,36
2017-01-30T06:56:07.448Z,44
2017-01-30T06:57:16.567Z,56
2017-01-30T06:58:27.255Z,64
2017-01-30T06:59:37.851Z,64
2017-01-30T07:00:47.752Z,68
2017-01-30T07:01:58.048Z,68
2017-01-30T07:03:07.943Z,72
2017-01-30T07:04:18.230Z,76
2017-01-30T07:05:29.163Z,80
2017-01-30T07:06:39.078Z,80
2017-01-30T07:07:48.973Z,84
2017-01-30T07:08:59.285Z,92
2017-01-30T07:10:09.188Z,96
2017-01-30T07:11:19.330Z,100
2017-01-30T07:12:29.241Z,108
2017-01-30T07:13:39.536Z,108
2017-01-30T07:14:49.853Z,104
2017-01-30T07:16:00.160Z,108
2017-01-30T07:17:11.093Z,112
2017-01-30T07:18:21.387Z,120
2017-01-30T07:19:32.077Z,120
2017-01-30T07:20:42.767Z,120
2017-01-30T07:21:52.671Z,124
2017-01-30T07:23:03.263Z,120
2017-01-30T07:24:13.557Z,124
2017-01-30T07:25:23.455Z,124
2017-01-30T07:26:34.138Z,128
2017-01-30T07:27:44.429Z,128
2017-01-30T07:28:55.416Z,132
2017-01-30T07:30:05.710Z,132
2017-01-30T07:31:16.009Z,132
2017-01-30T07:32:25.526Z,140
2017-01-30T07:33:35.837Z,144
2017-01-30T07:34:46.436Z,148
2017-01-30T07:35:56.761Z,152
2017-01-30T07:37:07.077Z,164
2017-01-30T07:38:16.585Z,172
2017-01-30T07:39:26.895Z,188
2017-01-30T07:40:37.853Z,208
2017-01-30T07:41:47.759Z,220
2017-01-30T07:42:58.081Z,236
2017-01-30T07:44:07.604Z,248
2017-01-30T07:45:17.901Z,260
2017-01-30T07:46:27.657Z,268
2017-01-30T07:47:37.191Z,272
2017-01-30T07:48:47.094Z,264
2017-01-30T07:49:56.989Z,268
2017-01-30T07:51:07.308Z,280
2017-01-30T07:52:17.061Z,276
2017-01-30T07:53:27.741Z,280
2017-01-30T07:54:38.047Z,292
2017-01-30T07:55:47.949Z,304
2017-01-30T07:56:57.859Z,304
2017-01-30T07:58:08.457Z,308
2017-01-30T07:59:18.350Z,292
2017-01-30T08:00:28.650Z,276
2017-01-30T08:01:38.551Z,280
2017-01-30T08:02:48.076Z,276
2017-01-30T08:03:58.239Z,276
2017-01-30T08:05:08.935Z,284
2017-01-30T08:06:19.633Z,296
2017-01-30T08:07:29.918Z,312
2017-01-30T08:08:40.607Z,316
2017-01-30T08:09:51.154Z,312
2017-01-30T08:11:01.095Z,300
2017-01-30T08:12:11.420Z,288
2017-01-30T08:13:21.314Z,272
2017-01-30T08:14:32.001Z,252
2017-01-30T08:15:42.594Z,240
2017-01-30T08:16:52.883Z,236
2017-01-30T08:18:03.194Z,236
2017-01-30T08:19:13.495Z,248
2017-01-30T08:20:23.792Z,276
2017-01-30T08:21:34.344Z,288
2017-01-30T08:22:44.247Z,304
2017-01-30T08:23:54.585Z,344
2017-01-30T08:25:05.300Z,368
2017-01-30T08:26:15.592Z,364
2017-01-30T08:27:25.812Z,368
2017-01-30T08:28:36.085Z,356
2017-01-30T08:29:45.594Z,356
2017-01-30T08:30:54.699Z,356
2017-01-30T08:32:05.546Z,352
2017-01-30T08:33:16.501Z,324
2017-01-30T08:34:26.039Z,316
2017-01-30T08:35:36.333Z,296
2017-01-30T08:36:46.236Z,288
2017-01-30T08:37:56.558Z,276
2017-01-30T08:39:06.713Z,272
2017-01-30T08:40:16.308Z,272
2017-01-30T08:41:26.231Z,272
2017-01-30T08:42:37.251Z,284
2017-01-30T08:43:47.939Z,312
2017-01-30T08:44:58.485Z,332
2017-01-30T08:46:08.395Z,356
2017-01-30T08:47:18.316Z,364
2017-01-30T08:48:28.619Z,380
2017-01-30T08:49:38.918Z,396
2017-01-30T08:50:49.927Z,412
2017-01-30T08:52:00.222Z,436
2017-01-30T08:53:10.117Z,460
2017-01-30T08:54:20.417Z,468
2017-01-30T08:55:29.937Z,460
2017-01-30T08:56:40.488Z,448
2017-01-30T08:57:50.779Z,428
2017-01-30T08:59:00.696Z,460
2017-01-30T09:00:10.605Z,512
2017-01-30T09:01:21.299Z,572
2017-01-30T09:02:31.460Z,620
2017-01-30T09:03:41.780Z,656
2017-01-30T09:04:52.090Z,680
2017-01-30T09:06:02.407Z,692
2017-01-30T09:07:12.705Z,684
2017-01-30T09:08:22.921Z,728
2017-01-30T09:09:33.219Z,792
2017-01-30T09:10:43.544Z,816
2017-01-30T09:11:52.662Z,856
2017-01-30T09:13:02.974Z,856
2017-01-30T09:14:13.165Z,864
2017-01-30T09:15:23.466Z,824
2017-01-30T09:16:34.165Z,796
2017-01-30T09:17:44.473Z,776
2017-01-30T09:18:55.180Z,748
2017-01-30T09:20:04.598Z,696
2017-01-30T09:21:14.106Z,676
2017-01-30T09:22:24.027Z,680
2017-01-30T09:23:34.710Z,676
2017-01-30T09:24:44.228Z,680
2017-01-30T09:25:55.236Z,688
2017-01-30T09:27:05.526Z,680
2017-01-30T09:28:15.820Z,664
2017-01-30T09:29:26.122Z,664
2017-01-30T09:30:36.026Z,648
2017-01-30T09:31:47.020Z,664
2017-01-30T09:32:57.717Z,632
2017-01-30T09:34:07.235Z,608
2017-01-30T09:35:17.533Z,688
2017-01-30T09:36:27.438Z,724
2017-01-30T09:37:38.059Z,744
2017-01-30T09:38:48.373Z,788
2017-01-30T09:39:57.914Z,764
2017-01-30T09:41:08.235Z,776
2017-01-30T09:42:18.536Z,764
2017-01-30T09:43:28.696Z,728
2017-01-30T09:44:38.605Z,768
2017-01-30T09:45:48.898Z,752
2017-01-30T09:46:58.429Z,732
2017-01-30T09:48:08.729Z,744
2017-01-30T09:49:18.900Z,800
2017-01-30T09:50:29.204Z,792
2017-01-30T09:51:39.112Z,756
2017-01-30T09:52:49.428Z,736
2017-01-30T09:53:59.758Z,744
2017-01-30T09:55:10.361Z,764
2017-01-30T09:56:20.268Z,744
2017-01-30T09:57:30.958Z,712
2017-01-30T09:58:41.667Z,736
2017-01-30T09:59:51.970Z,708
2017-01-30T10:01:02.203Z,700
2017-01-30T10:02:12.503Z,692
2017-01-30T10:03:22.801Z,668
2017-01-30T10:04:33.114Z,628
2017-01-30T10:05:44.046Z,612
2017-01-30T10:06:53.032Z,608
2017-01-30T10:08:03.338Z,588
2017-01-30T10:09:13.262Z,552
2017-01-30T10:10:23.566Z,528
2017-01-30T10:11:33.072Z,532
2017-01-30T10:12:43.342Z,596
2017-01-30T10:13:53.255Z,596
2017-01-30T10:15:03.198Z,572
2017-01-30T10:16:13.500Z,520
2017-01-30T10:17:24.239Z,480
2017-01-30T10:18:34.009Z,452
2017-01-30T10:19:44.322Z,496
2017-01-30T10:20:54.231Z,492
2017-01-30T10:22:03.750Z,480
2017-01-30T10:23:14.054Z,452
2017-01-30T10:24:24.267Z,388
2017-01-30T10:25:35.000Z,360
2017-01-30T10:26:45.309Z,332
2017-01-30T10:27:55.629Z,296
2017-01-30T10:29:06.320Z,256
2017-01-30T10:30:17.274Z,308
2017-01-30T10:31:27.180Z,360
2017-01-30T10:32:36.684Z,372
2017-01-30T10:33:46.204Z,388
2017-01-30T10:34:56.108Z,432
2017-01-30T10:36:05.872Z,432
2017-01-30T10:37:15.601Z,460
2017-01-30T10:38:24.713Z,432
2017-01-30T10:39:35.007Z,456
2017-01-30T10:40:45.314Z,504
2017-01-30T10:41:54.732Z,604
2017-01-30T10:43:04.654Z,568
2017-01-30T10:44:14.971Z,540
2017-01-30T10:45:25.643Z,560
2017-01-30T10:46:35.168Z,576
2017-01-30T10:47:45.764Z,548
2017-01-30T10:48:56.450Z,580
2017-01-30T10:50:05.975Z,532
2017-01-30T10:51:16.667Z,520
2017-01-30T10:52:26.165Z,580
2017-01-30T10:53:37.100Z,668
2017-01-30T10:54:47.398Z,708
2017-01-30T10:55:58.096Z,728
2017-01-30T10:57:07.999Z,740
2017-01-30T10:58:18.302Z,772
2017-01-30T10:59:28.904Z,788
2017-01-30T11:00:38.405Z,752
2017-01-30T11:01:49.128Z,720
2017-01-30T11:02:59.427Z,656
2017-01-30T11:04:10.150Z,632
2017-01-30T11:05:20.708Z,632
2017-01-30T11:06:30.596Z,628
2017-01-30T11:07:40.907Z,612
2017-01-30T11:08:50.808Z,604
2017-01-30T11:10:01.119Z,572
2017-01-30T11:11:11.712Z,548
2017-01-30T11:12:22.404Z,544
2017-01-30T11:13:32.707Z,536
2017-01-30T11:14:41.819Z,516
2017-01-30T11:15:52.119Z,496
2017-01-30T11:17:02.277Z,520
2017-01-30T11:18:12.971Z,540
2017-01-30T11:19:22.870Z,588
2017-01-30T11:20:33.178Z,608
2017-01-30T11:21:43.076Z,524
2017-01-30T11:22:52.896Z,484
2017-01-30T11:24:03.188Z,444
2017-01-30T11:25:13.887Z,436
2017-01-30T11:26:24.180Z,412
2017-01-30T11:27:33.686Z,420
2017-01-30T11:28:44.732Z,456
2017-01-30T11:29:55.043Z,480
2017-01-30T11:31:05.354Z,516
2017-01-30T11:32:15.661Z,536
2017-01-30T11:33:25.578Z,548
2017-01-30T11:34:36.192Z,564
2017-01-30T11:35:46.910Z,568
2017-01-30T11:36:57.615Z,576
2017-01-30T11:38:06.738Z,588
2017-01-30T11:39:16.638Z,612
2017-01-30T11:40:27.243Z,632
2017-01-30T11:41:37.579Z,664
2017-01-30T11:42:47.875Z,676
2017-01-30T11:43:57.379Z,640
2017-01-30T11:45:08.071Z,600
2017-01-30T11:46:18.282Z,616
2017-01-30T11:47:28.583Z,648
2017-01-30T11:48:38.524Z,660
2017-01-30T11:49:48.828Z,656
2017-01-30T11:50:59.528Z,636
2017-01-30T11:52:10.508Z,664
2017-01-30T11:53:20.006Z,696
2017-01-30T11:54:30.900Z,720
2017-01-30T11:55:40.411Z,736
2017-01-30T11:56:49.930Z,756
2017-01-30T11:58:00.919Z,776
2017-01-30T11:59:11.617Z,804
2017-01-30T12:00:21.922Z,832
2017-01-30T12:01:31.853Z,868
2017-01-30T12:02:42.200Z,904
2017-01-30T12:03:52.434Z,928
2017-01-30T12:05:01.946Z,936
2017-01-30T12:06:11.869Z,944
2017-01-30T12:07:21.787Z,860
2017-01-30T12:08:32.097Z,856
2017-01-30T12:09:42.656Z,880
2017-01-30T12:10:53.358Z,892
2017-01-30T12:12:04.065Z,884
2017-01-30T12:13:13.970Z,884
2017-01-30T12:14:24.275Z,904
2017-01-30T12:15:34.636Z,928
2017-01-30T12:16:44.531Z,968
2017-01-30T12:17:53.651Z,980
2017-01-30T12:19:03.559Z,972
2017-01-30T12:20:13.860Z,956
2017-01-30T12:21:24.457Z,924
2017-01-30T12:22:34.360Z,880
2017-01-30T12:23:45.057Z,848
2017-01-30T12:24:55.752Z,840
2017-01-30T12:26:05.671Z,792
2017-01-30T12:27:16.606Z,772
2017-01-30T12:28:27.290Z,788
2017-01-30T12:29:37.207Z,816
2017-01-30T12:30:47.500Z,816
2017-01-30T12:31:57.793Z,796
2017-01-30T12:33:08.006Z,776
2017-01-30T12:34:17.518Z,744
2017-01-30T12:35:27.816Z,664
2017-01-30T12:36:37.746Z,572
2017-01-30T12:37:48.054Z,460
2017-01-30T12:38:57.436Z,416
2017-01-30T12:40:06.993Z,384
2017-01-30T12:41:16.501Z,372
2017-01-30T12:42:26.409Z,336
2017-01-30T12:43:36.312Z,344
2017-01-30T12:44:47.250Z,356
2017-01-30T12:45:57.933Z,388
2017-01-30T12:47:08.268Z,392
2017-01-30T12:48:18.163Z,368
2017-01-30T12:49:28.063Z,380
2017-01-30T12:50:38.655Z,352
2017-01-30T12:51:48.561Z,360
2017-01-30T12:52:58.860Z,368
2017-01-30T12:54:08.760Z,356
2017-01-30T12:55:19.446Z,348
2017-01-30T12:56:30.047Z,316
2017-01-30T12:57:40.343Z,324
2017-01-30T12:58:50.709Z,320
2017-01-30T13:00:01.401Z,308
2017-01-30T13:01:11.709Z,328
2017-01-30T13:02:21.914Z,332
2017-01-30T13:03:31.822Z,352
2017-01-30T13:04:42.106Z,344
2017-01-30T13:05:52.406Z,364
2017-01-30T13:07:02.694Z,392
2017-01-30T13:08:13.269Z,420
2017-01-30T13:09:23.565Z,432
2017-01-30T13:10:33.856Z,428
2017-01-30T13:11:43.772Z,416
2017-01-30T13:12:54.070Z,420
2017-01-30T13:14:04.269Z,396
2017-01-30T13:15:14.582Z,376
2017-01-30T13:16:25.280Z,360
2017-01-30T13:17:35.964Z,372
2017-01-30T13:18:45.872Z,356
2017-01-30T13:19:56.094Z,384
2017-01-30T13:21:06.000Z,356
2017-01-30T13:22:15.504Z,352
2017-01-30T13:23:25.416Z,340
2017-01-30T13:24:35.332Z,352
2017-01-30T13:25:45.876Z,356
2017-01-30T13:26:56.182Z,356
2017-01-30T13:28:06.486Z,356
2017-01-30T13:29:15.988Z,364
2017-01-30T13:30:25.507Z,376
2017-01-30T13:31:35.669Z,372
2017-01-30T13:32:45.593Z,368
2017-01-30T13:33:55.504Z,360
2017-01-30T13:35:05.817Z,364
2017-01-30T13:36:16.111Z,356
2017-01-30T13:37:26.274Z,364
2017-01-30T13:38:36.981Z,368
2017-01-30T13:39:46.898Z,372
2017-01-30T13:40:56.809Z,380
2017-01-30T13:42:06.715Z,388
2017-01-30T13:43:16.476Z,400
2017-01-30T13:44:26.006Z,396
2017-01-30T13:45:35.511Z,392
2017-01-30T13:46:45.411Z,388
2017-01-30T13:47:55.727Z,376
2017-01-30T13:49:06.753Z,364
2017-01-30T13:50:16.655Z,356
2017-01-30T13:51:26.968Z,352
2017-01-30T13:52:37.265Z,352
2017-01-30T13:53:47.563Z,344
2017-01-30T13:54:57.759Z,332
2017-01-30T13:56:06.880Z,340
2017-01-30T13:57:17.179Z,344
2017-01-30T13:58:27.494Z,324
2017-01-30T13:59:38.188Z,304
2017-01-30T14:00:49.117Z,288
2017-01-30T14:01:58.626Z,276
2017-01-30T14:03:08.645Z,272
2017-01-30T14:04:17.768Z,280
2017-01-30T14:05:27.672Z,280
2017-01-30T14:06:38.674Z,280
2017-01-30T14:07:49.374Z,272
2017-01-30T14:08:59.281Z,284
2017-01-30T14:10:09.199Z,312
2017-01-30T14:11:19.110Z,320
2017-01-30T14:12:28.919Z,320
2017-01-30T14:13:39.645Z,312
2017-01-30T14:14:49.563Z,300
2017-01-30T14:15:59.890Z,292
2017-01-30T14:17:10.193Z,288
2017-01-30T14:18:21.182Z,284
2017-01-30T14:19:31.482Z,276
2017-01-30T14:20:41.386Z,268
2017-01-30T14:21:51.289Z,248
2017-01-30T14:23:01.199Z,232
2017-01-30T14:24:11.750Z,220
2017-01-30T14:25:22.063Z,212
2017-01-30T14:26:32.397Z,204
2017-01-30T14:27:42.695Z,196
2017-01-30T14:28:53.012Z,184
2017-01-30T14:30:02.819Z,176
2017-01-30T14:31:12.749Z,176
2017-01-30T14:32:23.037Z,4
2017-01-30T14:33:33.722Z,4
2017-01-30T14:34:43.647Z,4
2017-01-30T14:35:54.470Z,4
2017-01-30T14:37:04.378Z,4
2017-01-30T14:38:15.092Z,4
2017-01-30T14:39:25.827Z,4
2017-01-30T14:40:36.541Z,0
2017-01-30T14:41:47.104Z,0
2017-01-30T14:42:57.802Z,0
2017-01-30T14:44:08.099Z,0
2017-01-30T14:45:17.992Z,0
2017-01-30T14:46:27.520Z,4
2017-01-30T14:47:38.021Z,4
2017-01-30T14:48:48.342Z,4
2017-01-30T14:49:58.657Z,4
2017-01-30T14:51:08.583Z,4
2017-01-30T14:52:18.496Z,4
2017-01-30T14:53:29.052Z,4
2017-01-30T14:54:38.201Z,0
2017-01-30T14:55:48.489Z,0
2017-01-30T14:56:58.788Z,0
2017-01-30T14:58:09.090Z,0
2017-01-30T14:59:19.642Z,0
2017-01-30T15:00:29.164Z,0
2017-01-30T15:01:39.491Z,0
2017-01-30T15:02:49.410Z,0
2017-01-30T15:03:59.319Z,0
2017-01-30T15:05:10.278Z,0
2017-01-30T15:06:20.613Z,0
2017-01-30T15:07:30.907Z,0
2017-01-30T15:08:41.226Z,0
2017-01-30T15:09:51.137Z,0
2017-01-30T15:11:01.299Z,0
2017-01-30T15:12:11.591Z,0
2017-01-30T15:13:21.892Z,0
2017-01-30T15:14:32.191Z,0
2017-01-30T15:15:42.112Z,0
2017-01-30T15:16:52.318Z,0
2017-01-30T15:18:03.022Z,0
2017-01-30T15:19:12.928Z,0
2017-01-30T15:20:23.612Z,0
2017-01-30T15:21:34.307Z,0
2017-01-30T15:22:44.893Z,0
2017-01-30T15:23:55.184Z,0
2017-01-30T15:25:04.692Z,0
2017-01-30T15:26:14.989Z,0
2017-01-30T15:27:25.300Z,0
2017-01-30T15:28:35.447Z,0
2017-01-30T15:29:45.570Z,0
2017-01-30T15:30:56.259Z,0
2017-01-30T15:32:05.759Z,0
2017-01-30T15:33:16.457Z,0
2017-01-30T15:34:27.402Z,0
2017-01-30T15:35:38.095Z,0
2017-01-30T15:36:48.399Z,0
2017-01-30T15:37:58.323Z,0
2017-01-30T15:39:09.028Z,0
2017-01-30T15:40:20.377Z,0
2017-01-30T15:41:30.281Z,0
2017-01-30T15:42:40.271Z,0
2017-01-30T15:43:50.954Z,0
2017-01-30T15:45:51.135Z,0
2017-01-30T15:47:01.837Z,0
2017-01-30T15:48:12.154Z,0
2017-01-30T15:49:22.464Z,0
2017-01-30T15:50:31.970Z,0
2017-01-30T15:51:42.516Z,0
2017-01-30T15:52:53.221Z,0
2017-01-30T15:54:03.126Z,0
2017-01-30T15:55:13.420Z,0
2017-01-30T15:56:23.715Z,0
2017-01-30T15:57:33.534Z,0
2017-01-30T15:58:43.831Z,0
2017-01-30T15:59:53.735Z,0
2017-01-30T16:01:04.069Z,0
2017-01-30T16:02:14.757Z,0
2017-01-30T16:03:25.711Z,0
2017-01-30T16:04:35.218Z,0
2017-01-30T16:05:45.954Z,0
2017-01-30T16:06:56.636Z,0
2017-01-30T16:08:07.342Z,0
2017-01-30T16:09:17.902Z,0
2017-01-30T16:10:28.216Z,0
2017-01-30T16:11:38.132Z,0
2017-01-30T16:12:48.869Z,0
2017-01-30T16:13:59.216Z,0
2017-01-30T16:15:08.982Z,0
2017-01-30T16:16:18.908Z,0
2017-01-30T16:17:28.413Z,0
2017-01-30T16:18:38.316Z,0
2017-01-30T16:19:47.822Z,0
2017-01-30T16:20:57.185Z,0
2017-01-30T16:22:07.887Z,0
2017-01-30T16:23:18.577Z,0
2017-01-30T16:24:28.873Z,0
2017-01-30T16:25:38.387Z,0
2017-01-30T16:26:48.992Z,0
2017-01-30T16:27:59.699Z,0
2017-01-30T16:29:09.590Z,0
2017-01-30T16:30:19.489Z,0
2017-01-30T16:31:30.198Z,0
2017-01-30T16:32:41.200Z,0
2017-01-30T16:33:51.896Z,0
2017-01-30T16:35:02.244Z,0
2017-01-30T16:36:12.938Z,0
2017-01-30T16:37:23.270Z,0
2017-01-30T16:38:33.871Z,0
2017-01-30T16:39:43.782Z,0
2017-01-30T16:40:53.299Z,0
2017-01-30T16:42:03.642Z,0
2017-01-30T16:43:14.336Z,0
2017-01-30T16:44:24.893Z,0
2017-01-30T16:45:35.213Z,0